DABC/CZL METAR and TAF weather

Enter ICAO airport designator
Station Type Date Time Source
DABC METAR 2019/02/23 23:00 UTC NOAA

DABC 232300Z 35006KT 9999 SCT020 SCT026 07/02 Q1022


Station Type Date Time Source
DABC Decoded METAR 2019/02/23 23:00 UTC NOAA

Constantine, Algeria (DABC) 36-17N 006-37E 694M
Feb 23, 2019 - 06:00 PM EST / 2019.02.23 2300 UTC
Wind: from the N (350 degrees) at 7 MPH (6 KT):0
Visibility: greater than 7 mile(s):0
Sky conditions: partly cloudy
Temperature: 44 F (7 C)
Dew Point: 35 F (2 C)
Relative Humidity: 70%
Pressure (altimeter): 30.18 in. Hg (1022 hPa)
ob: DABC 232300Z 35006KT 9999 SCT020 SCT026 07/02 Q1022
cycle: 23

Station Type Date Time Source
DABC TAF 2019/02/23 18:33 UTC NOAA

TAF DABC 231700Z 2318/2418 32015KT 9999 FEW020 SCT026
TEMPO 2318/2406 FEW015TCU PROB30
TEMPO 2318/2324 02015G25KT


Example: see airport list